Terminal Aerodrome Forecast
Issued by NWS

Home | Current Version | Previous Version | Text Only | Print | Product List | Glossary On
Versions: 1 2 3 4 5 6 7 8 9 10 11 12
000
FTUS44 KTSA 052300
TAFXNA
TAF
KXNA 052320Z 0600/0624 17011G17KT P6SM SCT100 BKN250
     FM060800 16007KT P6SM VCTS BKN050CB
      TEMPO 0608/0612 6SM -TSRA BKN050CB
     FM061200 16010KT 4SM -SHRA OVC035
     FM061800 16012G20KT P6SM VCTS BKN035CB=

USA.gov is the U.S. government's official web portal to all federal, state and local government web resources and services.